Time;durP1;ratioP1;P1;durP2;ratioP2;P2;SDS_P1;SDS_P2;PMS_P1;PMS_P2;Temp;Humidity;BMP_temperature;BMP_pressure;BME280_temperature;BME280_humidity;BME280_pressure;Samples;Min_cycle;Max_cycle;Signal;HPM_P1;HPM_P2
2021/12/10 00:00:19;;;;;;;45.80;22.55;;;5.50;99.90;;;;;;5050324;28;20091;-61
2021/12/10 00:02:46;;;;;;;49.90;22.50;;;5.50;99.90;;;;;;5050326;28;20064;-61
2021/12/10 00:05:35;;;;;;;41.60;20.40;;;5.50;99.90;;;;;;5049738;28;20033;-61
2021/12/10 00:08:01;;;;;;;45.28;20.80;;;5.50;99.90;;;;;;5032252;28;20408;-61
2021/12/10 00:10:32;;;;;;;50.70;21.63;;;5.50;99.90;;;;;;5050277;28;20068;-61
2021/12/10 00:13:00;;;;;;;39.35;18.92;;;5.50;99.90;;;;;;5050177;28;20045;-61
2021/12/10 00:15:29;;;;;;;41.28;20.55;;;5.60;99.90;;;;;;5049903;28;20045;-61
2021/12/10 00:17:58;;;;;;;42.55;19.95;;;5.50;99.90;;;;;;5050541;28;20060;-61
2021/12/10 00:20:26;;;;;;;43.10;19.13;;;5.60;99.90;;;;;;5050006;28;20055;-61
2021/12/10 00:22:57;;;;;;;36.90;19.80;;;5.50;99.90;;;;;;5049596;28;20036;-61
2021/12/10 00:25:35;;;;;;;43.03;20.70;;;5.50;99.90;;;;;;5050122;28;20037;-61
2021/12/10 00:28:13;;;;;;;44.67;21.10;;;5.50;99.90;;;;;;5049521;28;20037;-61
2021/12/10 00:30:54;;;;;;;40.00;20.02;;;5.50;99.90;;;;;;5050102;28;20052;-61
2021/12/10 00:33:24;;;;;;;39.00;19.75;;;5.50;99.90;;;;;;5049889;28;20037;-61
2021/12/10 00:35:54;;;;;;;42.95;19.63;;;5.50;99.90;;;;;;5050148;28;20033;-61
2021/12/10 00:38:21;;;;;;;41.33;18.73;;;5.50;99.90;;;;;;5049418;28;20483;-61
2021/12/10 00:40:47;;;;;;;39.35;18.83;;;5.50;99.90;;;;;;5049646;28;20051;-61
2021/12/10 00:43:13;;;;;;;38.78;19.52;;;5.50;99.90;;;;;;5049493;28;20044;-61
2021/12/10 00:45:39;;;;;;;39.83;19.67;;;5.50;99.90;;;;;;5050015;28;20045;-61
2021/12/10 00:48:05;;;;;;;37.72;19.05;;;5.50;99.90;;;;;;5049658;28;20041;-61
2021/12/10 00:50:38;;;;;;;36.72;19.23;;;5.50;99.90;;;;;;5049595;28;20047;-61
2021/12/10 00:53:04;;;;;;;42.55;20.30;;;5.40;99.90;;;;;;5049108;28;20033;-61
2021/12/10 00:55:30;;;;;;;37.10;19.33;;;5.40;99.90;;;;;;5049308;28;20035;-61
2021/12/10 00:57:57;;;;;;;44.05;20.17;;;5.40;99.90;;;;;;5049527;28;20612;-61
2021/12/10 01:00:28;;;;;;;40.95;19.60;;;5.40;99.90;;;;;;5049655;28;20055;-61
2021/12/10 01:02:54;;;;;;;49.08;19.98;;;5.40;99.90;;;;;;5049411;28;20071;-61
2021/12/10 01:05:20;;;;;;;36.80;17.42;;;5.40;99.90;;;;;;5049591;28;20056;-61
2021/12/10 01:07:47;;;;;;;32.70;16.48;;;5.40;99.90;;;;;;5049387;28;20033;-61
2021/12/10 01:10:30;;;;;;;38.33;17.35;;;5.40;99.90;;;;;;5049448;28;20457;-61
2021/12/10 01:12:59;;;;;;;42.15;16.35;;;5.40;99.90;;;;;;5046755;28;20119;-61
2021/12/10 01:15:37;;;;;;;31.75;17.38;;;5.40;99.90;;;;;;5049526;28;20064;-61
2021/12/10 01:26:57;;;;;;;37.70;18.52;;;5.30;99.90;;;;;;5049231;28;20041;-61
2021/12/10 01:29:33;;;;;;;35.20;17.95;;;5.30;99.90;;;;;;5031410;28;20055;-61
2021/12/10 01:32:01;;;;;;;36.70;17.77;;;5.20;99.90;;;;;;5049109;28;20111;-61
2021/12/10 01:34:27;;;;;;;36.10;17.45;;;5.30;99.90;;;;;;5049339;28;20055;-61
2021/12/10 01:36:53;;;;;;;33.83;16.50;;;5.30;99.90;;;;;;5049091;28;20056;-61
2021/12/10 01:39:24;;;;;;;36.28;16.50;;;5.20;99.90;;;;;;5049120;28;20609;-61
2021/12/10 01:41:57;;;;;;;35.45;17.08;;;5.20;99.90;;;;;;5049065;28;20384;-61
2021/12/10 01:44:31;;;;;;;32.63;16.17;;;5.20;99.90;;;;;;5049211;28;20130;-61
2021/12/10 01:47:00;;;;;;;37.03;15.45;;;5.20;99.90;;;;;;5049227;28;20032;-61
2021/12/10 01:49:26;;;;;;;33.33;14.57;;;5.20;99.90;;;;;;5049224;28;20037;-61
2021/12/10 01:51:53;;;;;;;31.17;14.60;;;5.20;99.90;;;;;;5048748;28;20120;-61
2021/12/10 01:54:30;;;;;;;31.33;14.27;;;5.20;99.90;;;;;;5049199;28;20039;-61
2021/12/10 01:56:57;;;;;;;33.72;14.43;;;5.20;99.90;;;;;;5052329;28;20115;-61
2021/12/10 01:59:25;;;;;;;34.95;15.95;;;5.20;99.90;;;;;;5052533;28;20451;-61
2021/12/10 02:01:55;;;;;;;29.63;15.35;;;5.20;99.90;;;;;;5052152;28;20076;-61
2021/12/10 02:04:25;;;;;;;29.42;14.05;;;5.20;99.90;;;;;;5052735;28;20041;-61
2021/12/10 02:06:52;;;;;;;29.38;14.40;;;5.20;99.90;;;;;;5052795;28;20072;-60
2021/12/10 02:09:20;;;;;;;31.45;14.60;;;5.20;99.90;;;;;;5052155;28;20095;-61
2021/12/10 02:11:45;;;;;;;30.27;13.60;;;5.20;99.90;;;;;;5052378;28;20048;-61
2021/12/10 02:14:11;;;;;;;33.63;14.82;;;5.20;99.90;;;;;;5034262;28;20040;-61
2021/12/10 02:16:38;;;;;;;30.90;15.25;;;5.20;99.90;;;;;;5034660;28;20099;-61
2021/12/10 02:19:06;;;;;;;27.13;13.90;;;5.10;99.90;;;;;;5052245;28;20048;-61
2021/12/10 02:21:34;;;;;;;30.02;14.10;;;5.20;99.90;;;;;;5052200;28;20041;-61
2021/12/10 02:24:01;;;;;;;29.65;13.82;;;5.20;99.90;;;;;;5051822;28;20117;-61
2021/12/10 02:26:33;;;;;;;31.75;14.27;;;5.10;99.90;;;;;;5052169;28;20127;-61
2021/12/10 02:28:59;;;;;;;26.42;13.82;;;5.10;99.90;;;;;;5051695;28;20066;-61
2021/12/10 02:31:26;;;;;;;27.30;14.40;;;5.10;99.90;;;;;;5052461;28;20044;-61
2021/12/10 02:33:52;;;;;;;32.05;14.05;;;5.10;99.90;;;;;;5051479;28;20037;-61
2021/12/10 02:36:18;;;;;;;32.63;13.90;;;5.10;99.90;;;;;;5052078;28;20048;-61
2021/12/10 02:38:50;;;;;;;35.10;15.02;;;5.10;99.90;;;;;;5051934;28;20064;-61
2021/12/10 02:41:19;;;;;;;31.95;14.48;;;5.10;99.90;;;;;;5032015;28;20514;-61
2021/12/10 02:43:45;;;;;;;30.55;13.95;;;5.00;99.90;;;;;;5031691;28;20396;-61
2021/12/10 02:46:11;;;;;;;33.63;15.07;;;5.00;99.90;;;;;;5032018;28;20120;-61
2021/12/10 02:48:37;;;;;;;31.75;14.93;;;5.00;99.90;;;;;;5031822;28;20083;-61
2021/12/10 02:51:05;;;;;;;27.63;14.82;;;5.00;99.90;;;;;;5031844;28;20068;-60
2021/12/10 02:53:35;;;;;;;32.42;15.20;;;5.00;99.90;;;;;;5039250;28;20037;-60
2021/12/10 02:56:03;;;;;;;32.47;15.52;;;5.00;99.90;;;;;;5051342;28;20041;-61
2021/12/10 02:58:28;;;;;;;37.97;15.27;;;5.10;99.90;;;;;;5051378;28;20072;-61
2021/12/10 03:01:02;;;;;;;33.55;16.85;;;5.10;99.90;;;;;;5051283;28;20072;-61
2021/12/10 03:03:28;;;;;;;30.13;16.48;;;5.10;99.90;;;;;;5051238;28;20047;-61
2021/12/10 03:05:54;;;;;;;34.78;17.75;;;5.10;99.90;;;;;;5051427;28;20033;-61
2021/12/10 03:08:21;;;;;;;34.22;16.73;;;5.10;99.90;;;;;;5051122;28;20047;-61
2021/12/10 03:10:47;;;;;;;34.25;17.52;;;5.10;99.90;;;;;;5051099;28;20048;-61
2021/12/10 03:13:13;;;;;;;32.22;17.15;;;5.10;99.90;;;;;;5051432;28;20041;-61
2021/12/10 03:15:40;;;;;;;33.22;17.42;;;5.10;99.90;;;;;;5051192;28;20040;-61
2021/12/10 03:18:09;;;;;;;36.92;18.38;;;5.10;99.90;;;;;;5050976;28;20083;-61
2021/12/10 03:20:35;;;;;;;34.70;18.10;;;5.10;99.90;;;;;;5051052;28;20576;-61
2021/12/10 03:23:03;;;;;;;35.83;18.35;;;5.10;99.90;;;;;;5050705;28;20115;-61
2021/12/10 03:25:29;;;;;;;36.60;17.85;;;5.00;99.90;;;;;;5050987;28;20429;-61
2021/12/10 03:27:55;;;;;;;33.05;17.77;;;5.00;99.90;;;;;;5050964;28;20067;-61
2021/12/10 03:30:26;;;;;;;32.83;17.83;;;5.00;99.90;;;;;;5050774;28;20037;-61
2021/12/10 03:32:52;;;;;;;31.63;17.80;;;4.90;99.90;;;;;;5050717;28;20044;-61
2021/12/10 03:35:33;;;;;;;30.17;16.95;;;4.80;99.90;;;;;;5051014;28;20037;-61
2021/12/10 03:38:01;;;;;;;30.58;17.05;;;4.70;99.90;;;;;;5050892;28;20103;-61
2021/12/10 03:40:28;;;;;;;35.65;17.00;;;4.60;99.90;;;;;;5050882;28;20041;-61
2021/12/10 03:42:58;;;;;;;33.17;16.67;;;4.60;99.90;;;;;;5050611;28;20036;-61
2021/12/10 03:45:27;;;;;;;34.30;16.88;;;4.50;99.90;;;;;;5050973;28;20037;-61
2021/12/10 03:47:53;;;;;;;31.02;16.25;;;4.40;99.90;;;;;;5032421;28;20052;-61
2021/12/10 03:50:29;;;;;;;32.72;15.90;;;4.30;99.90;;;;;;5050211;28;20103;-60
2021/12/10 03:52:55;;;;;;;29.67;17.27;;;4.30;99.90;;;;;;5032429;28;20045;-60
2021/12/10 03:55:22;;;;;;;30.02;15.75;;;4.20;99.90;;;;;;5050802;28;20029;-60
2021/12/10 03:57:50;;;;;;;29.52;16.35;;;4.20;99.90;;;;;;5050426;28;20462;-61
2021/12/10 04:00:18;;;;;;;31.70;14.68;;;4.20;99.90;;;;;;5050192;28;20571;-61
2021/12/10 04:02:44;;;;;;;32.15;17.20;;;4.10;99.90;;;;;;5049587;28;20620;-61
2021/12/10 04:05:09;;;;;;;29.80;16.75;;;4.00;99.90;;;;;;5050430;28;20041;-60
2021/12/10 04:07:35;;;;;;;29.85;16.08;;;3.90;99.90;;;;;;5050232;28;20064;-61
2021/12/10 04:10:02;;;;;;;29.23;15.88;;;3.80;99.90;;;;;;5050089;28;20072;-61
2021/12/10 04:12:28;;;;;;;30.40;16.38;;;3.70;99.90;;;;;;5049871;28;20452;-61
2021/12/10 04:14:54;;;;;;;27.33;15.25;;;3.70;99.90;;;;;;5050234;28;20116;-61
2021/12/10 04:17:21;;;;;;;31.05;16.33;;;3.60;99.90;;;;;;5049999;28;20036;-60
2021/12/10 04:19:50;;;;;;;34.05;17.10;;;3.50;99.90;;;;;;5048628;28;20041;-61
2021/12/10 04:22:17;;;;;;;34.53;16.98;;;3.50;99.90;;;;;;5031682;28;20120;-61
2021/12/10 04:24:43;;;;;;;37.55;17.90;;;3.50;99.90;;;;;;5050113;28;20055;-60
2021/12/10 04:27:13;;;;;;;34.60;17.77;;;3.50;99.90;;;;;;5031156;28;20606;-61
2021/12/10 04:29:39;;;;;;;33.63;18.13;;;3.50;99.90;;;;;;5013570;28;20041;-61
2021/12/10 04:32:07;;;;;;;30.25;17.17;;;3.40;99.90;;;;;;5048143;28;20384;-62
2021/12/10 04:34:33;;;;;;;32.22;17.85;;;3.40;99.90;;;;;;5047833;28;20052;-61
2021/12/10 04:37:00;;;;;;;30.85;17.65;;;3.40;99.90;;;;;;5047767;28;20041;-61
2021/12/10 04:39:28;;;;;;;33.15;18.05;;;3.40;99.90;;;;;;5048537;28;20041;-61
2021/12/10 04:41:54;;;;;;;33.13;18.15;;;3.40;99.90;;;;;;5048640;28;20129;-61
2021/12/10 04:44:19;;;;;;;34.63;17.95;;;3.40;99.90;;;;;;5049023;28;20127;-60
2021/12/10 04:46:45;;;;;;;35.88;18.50;;;3.40;99.90;;;;;;5050097;28;20045;-61
2021/12/10 04:49:14;;;;;;;37.00;20.30;;;3.40;99.90;;;;;;5031704;28;20048;-61
2021/12/10 04:51:44;;;;;;;36.50;18.50;;;3.40;99.90;;;;;;5049242;28;20040;-60
2021/12/10 04:54:10;;;;;;;34.60;16.60;;;3.40;99.90;;;;;;5049046;28;20609;-62
2021/12/10 04:56:38;;;;;;;32.95;18.17;;;3.30;99.90;;;;;;5049715;28;20037;-60
2021/12/10 04:59:06;;;;;;;35.50;18.42;;;3.30;99.90;;;;;;5049419;28;20514;-62
2021/12/10 05:01:32;;;;;;;32.78;17.98;;;3.30;99.90;;;;;;5049534;28;20052;-60
2021/12/10 05:03:57;;;;;;;32.85;17.35;;;3.20;99.90;;;;;;5049385;28;20048;-61
2021/12/10 05:06:23;;;;;;;31.73;17.30;;;3.20;99.90;;;;;;5031871;28;20045;-61
2021/12/10 05:08:49;;;;;;;34.42;18.70;;;3.10;99.90;;;;;;5049290;28;20040;-60
2021/12/10 05:11:16;;;;;;;38.42;18.70;;;3.10;99.90;;;;;;5049466;28;20072;-61
2021/12/10 05:13:44;;;;;;;31.52;18.58;;;3.10;99.90;;;;;;5049345;28;20048;-61
2021/12/10 05:16:12;;;;;;;35.65;17.75;;;3.00;99.90;;;;;;5049608;28;20109;-59
2021/12/10 05:18:40;;;;;;;32.58;17.30;;;3.00;99.90;;;;;;5049119;28;20106;-61
2021/12/10 05:21:09;;;;;;;32.90;17.52;;;3.00;99.90;;;;;;5049155;28;20072;-61
2021/12/10 05:23:36;;;;;;;34.33;17.23;;;3.00;99.90;;;;;;5048746;28;20072;-61
2021/12/10 05:26:03;;;;;;;32.70;17.15;;;2.90;99.90;;;;;;5049079;28;20036;-61
2021/12/10 05:28:29;;;;;;;30.23;16.35;;;2.90;99.90;;;;;;5049538;28;20048;-61
2021/12/10 05:30:56;;;;;;;31.25;16.10;;;2.90;99.90;;;;;;5051043;28;20029;-60
2021/12/10 05:33:24;;;;;;;29.02;15.27;;;2.90;99.90;;;;;;5053069;28;20037;-62
2021/12/10 05:35:50;;;;;;;29.77;15.73;;;2.90;99.90;;;;;;5053111;28;20029;-60
2021/12/10 05:38:19;;;;;;;28.45;15.25;;;2.80;99.90;;;;;;5053027;28;20527;-61
2021/12/10 05:40:47;;;;;;;31.10;15.73;;;2.80;99.90;;;;;;5052986;28;20049;-61
2021/12/10 05:43:13;;;;;;;26.98;14.85;;;2.80;99.90;;;;;;5034921;28;20497;-61
2021/12/10 05:45:39;;;;;;;24.17;14.38;;;2.80;99.90;;;;;;5052776;28;20761;-61
2021/12/10 05:48:05;;;;;;;25.52;14.15;;;2.80;99.90;;;;;;5052727;28;20080;-61
2021/12/10 05:50:31;;;;;;;32.30;14.77;;;2.70;99.90;;;;;;5052988;28;20045;-62
2021/12/10 05:52:58;;;;;;;26.05;14.80;;;2.80;99.90;;;;;;5034641;28;20091;-61
2021/12/10 05:55:24;;;;;;;26.02;14.23;;;2.70;99.90;;;;;;5041651;28;20042;-60
2021/12/10 05:57:51;;;;;;;27.80;14.75;;;2.70;99.90;;;;;;5032687;28;20037;-61
2021/12/10 06:00:42;;;;;;;25.25;13.52;;;2.60;99.90;;;;;;5032674;28;20041;-61
2021/12/10 06:03:08;;;;;;;29.98;14.07;;;2.60;99.90;;;;;;5024173;28;20041;-60
2021/12/10 06:05:34;;;;;;;28.17;13.95;;;2.60;99.90;;;;;;5032436;28;20095;-60
2021/12/10 06:08:01;;;;;;;27.73;13.90;;;2.50;99.90;;;;;;5032286;28;20041;-61
2021/12/10 06:10:28;;;;;;;28.88;15.00;;;2.50;99.90;;;;;;5032611;28;20037;-61
2021/12/10 06:12:54;;;;;;;25.83;13.98;;;2.50;99.90;;;;;;5050223;28;20476;-60
2021/12/10 06:15:22;;;;;;;25.15;13.73;;;2.50;99.90;;;;;;5052253;28;20036;-62
2021/12/10 06:17:48;;;;;;;25.23;13.88;;;2.40;99.90;;;;;;5052329;28;20531;-61
2021/12/10 06:20:18;;;;;;;23.27;11.95;;;2.50;99.90;;;;;;5051936;28;20195;-61
2021/12/10 06:22:45;;;;;;;25.23;13.60;;;2.40;99.90;;;;;;5050614;28;20033;-60
2021/12/10 06:25:10;;;;;;;31.45;15.15;;;2.40;99.90;;;;;;5049159;28;20048;-59
2021/12/10 06:27:44;;;;;;;24.70;13.32;;;2.40;99.90;;;;;;5048488;28;20033;-60
2021/12/10 06:30:14;;;;;;;30.60;14.05;;;2.40;99.90;;;;;;5048964;28;20049;-61
2021/12/10 06:32:41;;;;;;;21.42;12.70;;;2.40;99.90;;;;;;5050816;28;20049;-59
2021/12/10 06:35:08;;;;;;;23.50;12.88;;;2.30;99.90;;;;;;5052071;28;20043;-59
2021/12/10 06:37:35;;;;;;;23.77;12.38;;;2.30;99.90;;;;;;5034340;28;20040;-60
2021/12/10 06:40:01;;;;;;;26.67;12.63;;;2.20;99.90;;;;;;5051959;28;20041;-60
2021/12/10 06:42:26;;;;;;;26.38;12.80;;;2.20;99.90;;;;;;5051504;28;20446;-60
2021/12/10 06:44:52;;;;;;;22.92;12.77;;;2.20;99.90;;;;;;5051074;28;20041;-59
2021/12/10 06:47:18;;;;;;;23.42;13.07;;;2.20;99.90;;;;;;5051357;28;20059;-59
2021/12/10 06:49:43;;;;;;;22.23;12.52;;;2.20;99.90;;;;;;5051685;28;20080;-59
2021/12/10 06:52:09;;;;;;;26.30;12.02;;;2.10;99.90;;;;;;5050059;28;20037;-59
2021/12/10 06:54:35;;;;;;;24.85;12.68;;;2.20;99.90;;;;;;5048292;28;20040;-58
2021/12/10 06:57:01;;;;;;;24.52;13.18;;;2.10;99.90;;;;;;5030876;28;20040;-57
2021/12/10 06:59:27;;;;;;;21.75;12.13;;;2.10;99.90;;;;;;5030690;28;20102;-59
2021/12/10 07:01:53;;;;;;;23.23;11.90;;;2.10;99.90;;;;;;5048147;28;20114;-55
2021/12/10 07:04:20;;;;;;;21.90;11.75;;;2.10;99.90;;;;;;5048450;28;20036;-60
2021/12/10 07:06:46;;;;;;;26.88;12.32;;;2.10;99.90;;;;;;5047907;28;20407;-57
2021/12/10 07:09:23;;;;;;;25.75;13.02;;;2.00;99.90;;;;;;5048223;28;20068;-58
2021/12/10 07:11:55;;;;;;;23.30;11.63;;;2.00;99.90;;;;;;5050044;28;20423;-60
2021/12/10 07:14:21;;;;;;;24.92;11.85;;;2.00;99.90;;;;;;5051247;28;20049;-56
2021/12/10 07:16:47;;;;;;;21.80;11.13;;;2.00;99.90;;;;;;5050952;28;20048;-56
2021/12/10 07:19:14;;;;;;;23.23;11.73;;;2.00;99.90;;;;;;5033068;28;20094;-58
2021/12/10 07:21:39;;;;;;;26.08;12.38;;;2.00;99.90;;;;;;5051151;28;20052;-55
2021/12/10 07:24:09;;;;;;;23.90;12.38;;;2.00;99.90;;;;;;5050747;28;20048;-57
2021/12/10 07:26:35;;;;;;;19.95;11.27;;;2.00;99.90;;;;;;5071020;28;20044;-59
2021/12/10 07:29:01;;;;;;;21.08;10.90;;;2.00;99.90;;;;;;5070485;28;20048;-58
2021/12/10 07:31:27;;;;;;;22.33;11.20;;;2.00;99.90;;;;;;5071039;28;20037;-58
2021/12/10 07:33:54;;;;;;;28.83;10.98;;;2.00;99.90;;;;;;5056629;28;20108;-57
2021/12/10 07:36:21;;;;;;;24.60;11.30;;;2.00;99.90;;;;;;5032887;28;20045;-58
2021/12/10 07:38:46;;;;;;;22.65;11.05;;;2.00;99.90;;;;;;5050400;28;20055;-58
2021/12/10 07:41:12;;;;;;;22.10;11.55;;;2.00;99.90;;;;;;5032579;28;20507;-58
2021/12/10 07:43:39;;;;;;;22.70;10.93;;;2.10;99.90;;;;;;5053440;28;20082;-59
2021/12/10 07:46:05;;;;;;;23.45;11.05;;;2.10;99.90;;;;;;5070630;28;20044;-59
2021/12/10 07:48:34;;;;;;;20.65;11.02;;;2.10;99.90;;;;;;5056697;28;20047;-59
2021/12/10 07:51:06;;;;;;;20.60;10.52;;;2.10;99.90;;;;;;5070410;28;20041;-59
2021/12/10 07:53:32;;;;;;;20.33;9.80;;;2.10;99.90;;;;;;5069457;28;20044;-59
2021/12/10 07:56:01;;;;;;;19.75;9.77;;;2.20;99.90;;;;;;5047250;28;20602;-60
2021/12/10 07:58:28;;;;;;;23.20;10.45;;;2.20;99.90;;;;;;5050408;28;20041;-59
2021/12/10 08:00:53;;;;;;;16.52;9.50;;;2.20;99.90;;;;;;5050192;28;20084;-58
2021/12/10 08:03:19;;;;;;;22.20;10.52;;;2.10;99.90;;;;;;5031867;28;20084;-60
2021/12/10 08:05:46;;;;;;;18.38;10.40;;;2.10;99.90;;;;;;5049903;28;20124;-59
2021/12/10 08:08:12;;;;;;;18.52;9.43;;;2.20;99.90;;;;;;5049983;28;20037;-59
2021/12/10 08:10:39;;;;;;;21.83;10.57;;;2.20;99.90;;;;;;5049817;28;20059;-59
2021/12/10 08:13:05;;;;;;;24.02;9.80;;;2.20;99.90;;;;;;5049711;28;20063;-58
2021/12/10 08:15:31;;;;;;;18.85;9.63;;;2.20;99.90;;;;;;5049937;28;20037;-59
2021/12/10 08:17:57;;;;;;;20.20;10.20;;;2.30;99.90;;;;;;5031944;28;20163;-59
2021/12/10 08:20:25;;;;;;;20.15;10.13;;;2.20;99.90;;;;;;5049623;28;20431;-60
2021/12/10 08:22:52;;;;;;;20.83;10.27;;;2.30;99.90;;;;;;5049419;28;20041;-60
2021/12/10 08:25:19;;;;;;;26.17;11.25;;;2.30;99.90;;;;;;5031939;28;20044;-60
2021/12/10 08:27:46;;;;;;;20.85;9.23;;;2.30;99.90;;;;;;5049014;28;20051;-60
2021/12/10 08:30:16;;;;;;;22.05;10.43;;;2.40;99.90;;;;;;5048506;28;20037;-59
2021/12/10 08:32:43;;;;;;;15.43;8.52;;;2.40;99.90;;;;;;5049165;28;20055;-61
2021/12/10 08:35:11;;;;;;;17.35;9.40;;;2.40;99.90;;;;;;5049298;28;20048;-60
2021/12/10 08:37:38;;;;;;;19.67;9.55;;;2.40;99.90;;;;;;5049410;28;20099;-59
2021/12/10 08:40:05;;;;;;;19.02;9.52;;;2.40;99.90;;;;;;5049454;28;20041;-60
2021/12/10 08:42:31;;;;;;;17.58;9.50;;;2.50;99.90;;;;;;5049544;28;20048;-60
2021/12/10 08:44:57;;;;;;;18.27;9.60;;;2.40;99.90;;;;;;5049632;28;20396;-60
2021/12/10 08:47:22;;;;;;;17.83;8.80;;;2.40;99.90;;;;;;5049584;28;20041;-59
2021/12/10 08:49:48;;;;;;;19.27;8.80;;;2.40;99.90;;;;;;5049482;28;20037;-59
2021/12/10 08:52:15;;;;;;;19.60;9.65;;;2.40;99.90;;;;;;5048541;28;20047;-60
2021/12/10 08:54:42;;;;;;;19.30;9.60;;;2.40;99.90;;;;;;5048568;28;20048;-59
2021/12/10 08:57:09;;;;;;;19.67;9.70;;;2.50;99.90;;;;;;5049601;28;20037;-60
2021/12/10 08:59:36;;;;;;;20.20;9.38;;;2.50;99.90;;;;;;5047113;28;20037;-59
2021/12/10 09:02:07;;;;;;;21.08;9.23;;;2.50;99.90;;;;;;5020505;28;20044;-59
2021/12/10 09:04:34;;;;;;;16.13;9.13;;;2.50;99.90;;;;;;5032376;28;20538;-59
2021/12/10 09:07:06;;;;;;;18.58;9.52;;;2.60;99.90;;;;;;5043706;28;20760;-57
2021/12/10 09:09:34;;;;;;;16.90;10.02;;;2.60;99.90;;;;;;5048288;28;20037;-60
2021/12/10 09:12:04;;;;;;;19.80;10.00;;;2.60;99.90;;;;;;5053177;28;20047;-60
2021/12/10 09:14:38;;;;;;;19.20;9.25;;;2.70;99.90;;;;;;5053387;28;20095;-60
2021/12/10 09:17:05;;;;;;;18.63;9.30;;;2.80;99.90;;;;;;5035366;28;20128;-60
2021/12/10 09:19:31;;;;;;;18.67;9.65;;;2.80;99.90;;;;;;5035282;28;20053;-60
2021/12/10 09:21:57;;;;;;;20.10;9.10;;;2.90;99.90;;;;;;5051442;28;20171;-60
2021/12/10 09:24:23;;;;;;;17.33;8.52;;;2.90;99.90;;;;;;5053333;28;20467;-60
2021/12/10 09:26:56;;;;;;;16.73;9.48;;;2.90;99.90;;;;;;5052920;28;20049;-60
2021/12/10 09:29:23;;;;;;;16.05;9.05;;;3.00;99.90;;;;;;5034999;28;20384;-59
2021/12/10 09:31:49;;;;;;;16.35;9.02;;;3.00;99.90;;;;;;5052634;28;20087;-60
2021/12/10 09:34:16;;;;;;;15.32;9.05;;;3.00;99.90;;;;;;5052975;28;20037;-61
2021/12/10 09:36:43;;;;;;;17.58;8.70;;;3.10;99.90;;;;;;5052810;28;20037;-58
2021/12/10 09:39:09;;;;;;;17.30;8.30;;;3.10;99.90;;;;;;5047229;28;20055;-60
2021/12/10 09:41:36;;;;;;;16.95;8.88;;;3.20;99.90;;;;;;5044881;28;20056;-60
2021/12/10 09:44:03;;;;;;;16.95;9.25;;;3.20;99.90;;;;;;5052262;28;20037;-60
2021/12/10 09:46:28;;;;;;;16.05;8.65;;;3.30;99.90;;;;;;5039428;28;20037;-60
2021/12/10 09:48:54;;;;;;;17.08;8.82;;;3.30;99.90;;;;;;5050541;28;20041;-60
2021/12/10 09:51:28;;;;;;;17.98;9.82;;;3.40;99.90;;;;;;5052501;28;20033;-60
2021/12/10 09:53:58;;;;;;;16.70;8.60;;;3.40;99.90;;;;;;5034237;28;20419;-60
2021/12/10 09:56:25;;;;;;;18.30;8.43;;;3.50;99.90;;;;;;5032635;28;20029;-59
2021/12/10 09:58:53;;;;;;;17.13;8.63;;;3.50;99.90;;;;;;5032253;28;20069;-60
2021/12/10 10:01:26;;;;;;;19.55;8.60;;;3.50;99.90;;;;;;5031591;28;20045;-60
2021/12/10 10:04:00;;;;;;;14.48;8.10;;;3.60;99.90;;;;;;5035353;28;20047;-60
2021/12/10 10:06:33;;;;;;;67.72;13.10;;;3.60;99.90;;;;;;5052070;28;20041;-60
2021/12/10 10:08:59;;;;;;;18.77;7.95;;;3.60;99.90;;;;;;5052061;28;20043;-59
2021/12/10 10:11:29;;;;;;;14.57;7.18;;;3.70;99.90;;;;;;5033987;28;20041;-60
2021/12/10 10:13:56;;;;;;;19.30;8.80;;;3.80;99.90;;;;;;5050649;28;20033;-60
2021/12/10 10:16:24;;;;;;;13.05;7.57;;;3.80;99.90;;;;;;5051579;28;20029;-59
2021/12/10 10:18:50;;;;;;;13.73;7.35;;;3.90;99.90;;;;;;5051725;28;20052;-60
2021/12/10 10:21:21;;;;;;;14.13;7.72;;;3.90;99.90;;;;;;5052171;28;20048;-60
2021/12/10 10:23:48;;;;;;;14.35;7.63;;;4.00;99.90;;;;;;5051901;28;20076;-60
2021/12/10 10:26:20;;;;;;;13.95;7.13;;;4.00;99.90;;;;;;5051925;28;20045;-60
2021/12/10 10:28:46;;;;;;;15.52;7.25;;;4.10;99.90;;;;;;5052105;28;20045;-60
2021/12/10 10:31:20;;;;;;;11.45;6.88;;;4.10;99.90;;;;;;5043539;28;20144;-62
2021/12/10 10:33:50;;;;;;;15.13;6.72;;;4.20;99.90;;;;;;5018623;28;20076;-60
2021/12/10 10:36:20;;;;;;;12.02;6.53;;;4.20;99.90;;;;;;5051719;28;20090;-60
2021/12/10 10:39:02;;;;;;;12.93;6.45;;;4.30;99.90;;;;;;5033896;28;20503;-60
2021/12/10 10:41:31;;;;;;;15.18;6.72;;;4.30;99.90;;;;;;5029778;28;20045;-60
2021/12/10 10:43:57;;;;;;;13.32;7.50;;;4.40;99.90;;;;;;5050557;28;20033;-60
2021/12/10 10:46:23;;;;;;;16.70;7.30;;;4.40;99.90;;;;;;5033608;28;20095;-60
2021/12/10 10:48:49;;;;;;;16.20;8.30;;;4.50;99.90;;;;;;5051112;28;20037;-59
2021/12/10 10:51:24;;;;;;;15.38;8.10;;;4.50;99.90;;;;;;5051368;28;20127;-59
2021/12/10 10:53:51;;;;;;;17.98;9.07;;;4.60;99.90;;;;;;5051273;28;20072;-59
2021/12/10 10:56:30;;;;;;;16.05;6.80;;;4.70;99.90;;;;;;5033468;28;20045;-59
2021/12/10 10:59:01;;;;;;;21.02;7.63;;;4.70;99.90;;;;;;5051305;28;20110;-60
2021/12/10 11:01:37;;;;;;;16.38;7.47;;;4.80;99.90;;;;;;5033352;28;20099;-61
2021/12/10 11:04:12;;;;;;;13.57;6.15;;;4.80;99.90;;;;;;5051298;28;20040;-61
2021/12/10 11:06:45;;;;;;;20.20;9.70;;;4.80;99.90;;;;;;5051321;28;20080;-61
2021/12/10 11:09:16;;;;;;;22.10;9.93;;;4.90;99.90;;;;;;5051180;28;20068;-61
2021/12/10 11:11:50;;;;;;;13.80;6.43;;;4.90;99.90;;;;;;5062420;22;20701;-66
2021/12/10 11:14:32;;;;;;;11.75;6.30;;;4.90;99.90;;;;;;5051230;28;20033;-62
2021/12/10 11:17:32;;;;;;;14.90;7.15;;;4.90;99.90;;;;;;5032986;28;20124;-62
2021/12/10 11:20:20;;;;;;;11.82;5.30;;;4.90;99.90;;;;;;5019589;28;20060;-62
2021/12/10 11:22:56;;;;;;;19.33;9.07;;;5.00;99.90;;;;;;5030941;28;20056;-62
2021/12/10 11:25:25;;;;;;;10.40;5.63;;;5.00;99.90;;;;;;5031341;28;20087;-62
2021/12/10 11:28:00;;;;;;;12.35;5.15;;;5.10;99.90;;;;;;5029922;28;20033;-62
2021/12/10 11:30:27;;;;;;;9.25;6.18;;;5.10;99.90;;;;;;5030911;28;20048;-62
2021/12/10 11:33:01;;;;;;;13.27;6.20;;;5.20;99.90;;;;;;5030721;28;20053;-61
2021/12/10 11:35:43;;;;;;;10.75;5.63;;;5.20;99.90;;;;;;5030467;28;20557;-62
2021/12/10 11:38:16;;;;;;;10.55;5.72;;;5.30;99.90;;;;;;5031110;28;20041;-62
2021/12/10 11:40:53;;;;;;;10.00;5.55;;;5.30;99.90;;;;;;5030614;28;20084;-62
2021/12/10 11:43:45;;;;;;;9.20;4.82;;;5.30;99.80;;;;;;5029995;28;20157;-62
2021/12/10 11:48:51;;;;;;;9.82;4.90;;;5.40;99.90;;;;;;5030742;28;20065;-62
2021/12/10 11:51:40;;;;;;;11.05;5.30;;;5.40;98.30;;;;;;5012724;28;20408;-61
2021/12/10 11:54:40;;;;;;;13.13;5.57;;;5.40;98.60;;;;;;4992942;28;20132;-62
2021/12/10 11:57:19;;;;;;;11.23;5.43;;;5.50;98.10;;;;;;4987432;28;20064;-62
2021/12/10 12:00:18;;;;;;;7.32;4.63;;;5.50;98.20;;;;;;5029489;28;20045;-61
2021/12/10 12:03:00;;;;;;;10.43;5.28;;;5.50;99.10;;;;;;5029275;28;20133;-61
2021/12/10 12:05:30;;;;;;;10.05;4.47;;;5.50;97.90;;;;;;5030412;28;20668;-62
2021/12/10 12:08:00;;;;;;;10.15;5.75;;;5.50;98.90;;;;;;5030127;28;20033;-61
2021/12/10 12:10:32;;;;;;;10.47;4.97;;;5.50;99.40;;;;;;5030219;28;20056;-62
2021/12/10 12:13:11;;;;;;;9.48;5.50;;;5.50;99.40;;;;;;5030407;28;20403;-62
2021/12/10 12:15:41;;;;;;;11.30;4.85;;;5.50;99.00;;;;;;5030030;28;20095;-62
2021/12/10 12:18:24;;;;;;;9.82;5.45;;;5.60;99.70;;;;;;5030077;28;20045;-62
2021/12/10 12:21:00;;;;;;;11.07;5.50;;;5.60;99.80;;;;;;5030011;28;20048;-62
2021/12/10 12:26:27;;;;;;;31.97;13.03;;;5.60;99.00;;;;;;5027835;28;20471;-62
2021/12/10 12:29:03;;;;;;;10.52;5.47;;;5.60;99.10;;;;;;5027859;28;20613;-62
2021/12/10 12:31:35;;;;;;;9.45;4.50;;;5.70;98.60;;;;;;5009742;28;20034;-61
2021/12/10 12:34:18;;;;;;;15.30;5.85;;;5.70;99.20;;;;;;5027988;28;20084;-62
2021/12/10 12:36:50;;;;;;;10.65;5.57;;;5.70;99.00;;;;;;5027700;28;20038;-62
2021/12/10 12:39:29;;;;;;;15.00;6.57;;;5.60;98.90;;;;;;5027468;28;20061;-61
2021/12/10 12:41:56;;;;;;;21.33;8.07;;;5.70;98.30;;;;;;5027121;28;20580;-61
2021/12/10 12:44:23;;;;;;;10.65;5.15;;;5.70;99.50;;;;;;5026691;28;20045;-61
2021/12/10 12:47:12;;;;;;;10.30;4.97;;;5.70;99.40;;;;;;5027535;28;20045;-61
2021/12/10 12:49:37;;;;;;;16.05;7.50;;;5.70;99.00;;;;;;4996007;28;20416;-61
2021/12/10 12:52:14;;;;;;;11.70;5.47;;;5.70;98.80;;;;;;5014190;28;20046;-62
2021/12/10 12:55:01;;;;;;;10.40;5.05;;;5.70;99.90;;;;;;5029968;28;20048;-62
2021/12/10 12:57:40;;;;;;;11.57;4.55;;;5.70;99.90;;;;;;5029760;28;20041;-63
2021/12/10 13:00:12;;;;;;;10.80;4.82;;;5.70;99.10;;;;;;5029546;28;20056;-63
2021/12/10 13:02:38;;;;;;;27.52;11.10;;;5.80;99.70;;;;;;5029496;28;20076;-63
2021/12/10 13:05:09;;;;;;;14.25;6.63;;;5.70;99.50;;;;;;5029900;28;20080;-63